Time;durP1;ratioP1;P1;durP2;ratioP2;P2;SDS_P1;SDS_P2;PMS_P1;PMS_P2;Temp;Humidity;BMP_temperature;BMP_pressure;BME280_temperature;BME280_humidity;BME280_pressure;Samples;Min_cycle;Max_cycle;Signal;HPM_P1;HPM_P2
2021/08/11 00:02:22;;;;;;;;;5.33;5.00;;;;;24.37;52.17;98547.94;4898904;28;103439;-83
2021/08/11 00:04:53;;;;;;;;;6.33;5.00;;;;;24.36;51.94;98557.34;4896008;28;101844;-83
2021/08/11 00:07:23;;;;;;;;;4.33;4.33;;;;;24.36;52.32;98562.09;4869593;28;102036;-83
2021/08/11 00:10:00;;;;;;;;;7.00;6.33;;;;;24.36;52.26;98562.09;4904458;28;102907;-82
2021/08/11 00:12:34;;;;;;;;;5.67;5.00;;;;;24.33;52.18;98566.25;4919625;28;103378;-83
2021/08/11 00:15:12;;;;;;;;;5.00;5.00;;;;;24.34;52.25;98567.91;4911103;28;101993;-83
2021/08/11 00:17:44;;;;;;;;;6.00;6.00;;;;;24.33;52.01;98551.59;4909011;28;102123;-83
2021/08/11 00:20:24;;;;;;;;;5.33;5.33;;;;;24.34;52.26;98561.53;4927716;28;102724;-83
2021/08/11 00:23:00;;;;;;;;;5.00;4.00;;;;;24.34;52.01;98564.31;4874609;28;106875;-83
2021/08/11 00:25:32;;;;;;;;;6.00;6.00;;;;;24.33;52.05;98562.66;4921154;28;102026;-83
2021/08/11 00:28:10;;;;;;;;;4.00;3.33;;;;;24.31;51.82;98551.91;4933351;28;102051;-83
2021/08/11 00:30:42;;;;;;;;;5.67;5.00;;;;;24.31;52.02;98542.78;4925248;28;102144;-83
2021/08/11 00:33:14;;;;;;;;;5.33;5.33;;;;;24.31;51.97;98542.78;4903492;28;104380;-83
2021/08/11 00:35:49;;;;;;;;;5.00;5.00;;;;;24.29;52.11;98545.84;4933180;28;102120;-83
2021/08/11 00:38:24;;;;;;;;;6.00;6.00;;;;;24.29;52.04;98553.28;4934879;28;101884;-82
2021/08/11 00:40:56;;;;;;;;;5.00;4.00;;;;;24.29;52.09;98550.53;4917444;28;102871;-83
2021/08/11 00:43:23;;;;;;;;;7.00;7.00;;;;;24.27;52.26;98547.25;4922856;28;103429;-83
2021/08/11 00:45:50;;;;;;;;;4.33;4.33;;;;;24.25;51.96;98546.69;4934011;28;102040;-83
2021/08/11 00:48:17;;;;;;;;;5.00;4.33;;;;;24.25;52.23;98539.25;4920701;28;102149;-83
2021/08/11 00:50:44;;;;;;;;;5.00;5.00;;;;;24.25;52.21;98530.94;4927379;28;103334;-83
2021/08/11 00:53:13;;;;;;;;;4.00;4.00;;;;;24.24;52.21;98534.00;4922523;28;103400;-83
2021/08/11 00:55:40;;;;;;;;;5.33;4.67;;;;;24.23;52.32;98535.94;4918552;28;103938;-83
2021/08/11 00:58:11;;;;;;;;;6.00;5.00;;;;;24.23;52.15;98529.56;4933652;28;102483;-83
2021/08/11 01:00:48;;;;;;;;;6.33;6.33;;;;;24.22;51.91;98534.31;4919772;28;102329;-83
2021/08/11 01:03:17;;;;;;;;;4.00;4.00;;;;;24.22;52.06;98539.00;4843788;28;103998;-83
2021/08/11 01:05:44;;;;;;;;;4.00;4.00;;;;;24.20;51.99;98541.22;4917711;28;103509;-83
2021/08/11 01:08:12;;;;;;;;;4.33;4.33;;;;;24.20;52.09;98533.75;4921619;28;102047;-83
2021/08/11 01:10:41;;;;;;;;;5.00;5.00;;;;;24.18;52.13;98524.13;4927273;28;101894;-84
2021/08/11 01:13:17;;;;;;;;;4.33;4.33;;;;;24.18;52.21;98524.13;4932218;28;104463;-83
2021/08/11 01:15:51;;;;;;;;;5.00;4.00;;;;;24.18;52.20;98521.38;4929450;28;101958;-84
2021/08/11 01:18:28;;;;;;;;;5.33;5.33;;;;;24.16;52.12;98529.09;4917969;28;101858;-83
2021/08/11 01:21:21;;;;;;;;;5.00;4.00;;;;;24.16;51.90;98520.81;4932584;28;106886;-83
2021/08/11 01:24:27;;;;;;;;;4.00;4.00;;;;;24.14;52.18;98525.75;4925712;28;107558;-83
2021/08/11 01:27:20;;;;;;;;;5.00;4.00;;;;;24.14;52.04;98532.13;4842762;28;104170;-83
2021/08/11 01:30:16;;;;;;;;;3.67;3.67;;;;;24.12;52.07;98528.84;4901924;28;103334;-81
2021/08/11 01:33:21;;;;;;;;;5.00;5.00;;;;;24.12;51.99;98528.00;4861370;28;101981;-84
2021/08/11 01:36:01;;;;;;;;;4.00;4.00;;;;;24.10;52.00;98527.47;4862128;28;107135;-83
2021/08/11 01:38:37;;;;;;;;;4.00;4.00;;;;;24.10;51.87;98530.22;4925727;28;102130;-83
2021/08/11 01:41:10;;;;;;;;;4.67;4.00;;;;;24.09;51.93;98523.06;4901123;28;103895;-83
2021/08/11 01:43:46;;;;;;;;;3.67;3.00;;;;;24.00;51.62;98512.63;4918467;28;104840;-83
2021/08/11 01:46:19;;;;;;;;;4.00;4.00;;;;;24.06;51.60;98518.94;4922274;28;109933;-83
2021/08/11 01:48:58;;;;;;;;;5.33;4.33;;;;;24.07;51.60;98528.06;4908472;28;102277;-83
2021/08/11 01:51:29;;;;;;;;;5.00;4.33;;;;;24.05;51.47;98533.03;4864062;28;103310;-83
2021/08/11 01:53:57;;;;;;;;;4.00;4.00;;;;;24.04;51.59;98531.41;4919341;28;102155;-83
2021/08/11 01:56:24;;;;;;;;;4.00;4.00;;;;;24.02;51.88;98527.00;4923789;28;104958;-83
2021/08/11 01:58:51;;;;;;;;;3.00;3.00;;;;;24.01;51.58;98521.75;4920806;28;101731;-83
2021/08/11 02:01:18;;;;;;;;;5.33;4.67;;;;;24.02;51.35;98524.22;4932126;28;104123;-83
2021/08/11 02:03:46;;;;;;;;;4.00;4.00;;;;;23.99;51.36;98519.28;4914958;28;102050;-83
2021/08/11 02:06:13;;;;;;;;;5.00;4.33;;;;;24.01;51.46;98522.56;4907399;28;103657;-83
2021/08/11 02:08:41;;;;;;;;;4.00;3.67;;;;;24.00;51.28;98514.59;4906973;28;102992;-83
2021/08/11 02:11:09;;;;;;;;;4.00;3.67;;;;;24.00;51.57;98518.16;4929823;28;103549;-83
2021/08/11 02:13:37;;;;;;;;;3.00;3.00;;;;;23.98;51.32;98511.28;4911275;28;102193;-83
2021/08/11 02:16:04;;;;;;;;;3.33;3.33;;;;;23.98;51.21;98522.34;4893059;28;103403;-83
2021/08/11 02:18:31;;;;;;;;;4.00;4.00;;;;;23.99;51.35;98519.28;4907750;28;101892;-83
2021/08/11 02:20:58;;;;;;;;;5.00;4.67;;;;;23.97;51.19;98515.97;4908106;28;102156;-83
2021/08/11 02:23:26;;;;;;;;;4.33;3.67;;;;;23.96;51.08;98519.84;4894478;28;102225;-83
2021/08/11 02:25:58;;;;;;;;;5.00;4.00;;;;;23.96;51.16;98519.84;4916311;28;103379;-83
2021/08/11 02:28:30;;;;;;;;;4.67;4.67;;;;;23.97;50.90;98521.50;4913423;28;104283;-83
2021/08/11 02:31:00;;;;;;;;;6.67;5.00;;;;;23.96;51.05;98519.84;4922515;28;101948;-83
2021/08/11 02:33:37;;;;;;;;;3.67;3.67;;;;;23.97;50.82;98538.09;4917596;28;102972;-83
2021/08/11 02:36:15;;;;;;;;;5.00;5.00;;;;;23.97;50.70;98543.59;4934140;28;103434;-83
2021/08/11 02:38:42;;;;;;;;;4.00;4.00;;;;;23.97;50.87;98542.78;4907251;28;101854;-83
2021/08/11 02:41:13;;;;;;;;;5.00;4.00;;;;;23.97;50.55;98548.31;4890846;28;103629;-83
2021/08/11 02:43:58;;;;;;;;;5.00;5.00;;;;;23.95;50.38;98548.63;4914352;28;102170;-83
2021/08/11 02:46:27;;;;;;;;;4.33;4.33;;;;;23.95;50.41;98545.84;4894566;28;107919;-83
2021/08/11 02:49:01;;;;;;;;;4.00;4.00;;;;;23.94;50.47;98555.25;4911218;28;104524;-82
2021/08/11 02:51:31;;;;;;;;;5.00;4.33;;;;;23.94;50.63;98548.88;4914692;28;101962;-83
2021/08/11 02:54:01;;;;;;;;;3.67;3.67;;;;;23.93;50.41;98548.06;4913210;28;102441;-83
2021/08/11 02:56:30;;;;;;;;;2.00;2.00;;;;;23.90;50.21;98548.66;4909810;28;103566;-83
2021/08/11 02:58:57;;;;;;;;;6.00;5.00;;;;;23.90;50.28;98547.81;4930427;28;102305;-83
2021/08/11 03:01:30;;;;;;;;;3.00;3.00;;;;;23.91;50.11;98546.72;4909689;28;102223;-81
2021/08/11 03:03:58;;;;;;;;;4.33;4.33;;;;;23.89;50.07;98554.44;4904410;28;102233;-83
2021/08/11 03:06:25;;;;;;;;;5.00;4.00;;;;;23.86;49.98;98555.88;4917238;28;103579;-82
2021/08/11 03:08:52;;;;;;;;;4.67;4.33;;;;;23.88;50.30;98556.38;4914661;28;102760;-83
2021/08/11 03:11:19;;;;;;;;;5.00;4.00;;;;;23.87;49.93;98560.25;4910371;28;102940;-83
2021/08/11 03:13:48;;;;;;;;;4.00;4.00;;;;;23.87;49.97;98560.25;4913957;28;103709;-83
2021/08/11 03:16:15;;;;;;;;;6.67;5.00;;;;;23.85;49.91;98561.66;4906749;28;103693;-83
2021/08/11 03:18:42;;;;;;;;;4.33;4.33;;;;;23.85;49.80;98558.91;4922070;28;102376;-83
2021/08/11 03:21:09;;;;;;;;;4.00;4.00;;;;;23.84;49.67;98563.59;4935822;28;103449;-83
2021/08/11 03:23:36;;;;;;;;;5.00;4.00;;;;;23.84;49.53;98560.84;4922960;28;103928;-83
2021/08/11 03:26:05;;;;;;;;;4.33;4.33;;;;;23.83;49.79;98570.22;4927567;28;103402;-83
2021/08/11 03:28:35;;;;;;;;;3.00;3.00;;;;;23.83;49.63;98566.63;4915168;28;102334;-83
2021/08/11 03:31:02;;;;;;;;;5.00;4.33;;;;;23.83;49.90;98570.22;4909110;28;102267;-83
2021/08/11 03:33:30;;;;;;;;;4.00;4.00;;;;;23.81;49.72;98569.72;4930835;28;103612;-83
2021/08/11 03:35:57;;;;;;;;;4.33;4.33;;;;;23.81;49.50;98574.41;4923359;28;103394;-83
2021/08/11 03:38:24;;;;;;;;;5.00;4.00;;;;;23.79;49.50;98579.38;4923205;28;103714;-83
2021/08/11 03:40:51;;;;;;;;;6.00;5.00;;;;;23.78;49.38;98595.13;4922186;28;103621;-82
2021/08/11 03:43:18;;;;;;;;;4.00;3.00;;;;;23.78;49.48;98589.59;4913793;28;103484;-83
2021/08/11 03:45:46;;;;;;;;;4.00;4.00;;;;;23.78;49.43;98589.59;4936309;28;103400;-83
2021/08/11 03:48:13;;;;;;;;;4.67;4.67;;;;;23.73;49.36;98589.63;4917070;28;102100;-83
2021/08/11 03:50:40;;;;;;;;;0.33;0.33;;;;;23.75;49.15;98590.19;4911740;28;103313;-83
2021/08/11 03:53:10;;;;;;;;;6.00;4.00;;;;;23.75;49.25;98592.09;4916622;28;104460;-83
2021/08/11 03:55:37;;;;;;;;;2.67;2.67;;;;;23.74;49.37;98588.53;4912607;28;103621;-83
2021/08/11 03:58:04;;;;;;;;;4.67;4.33;;;;;23.73;49.13;98581.34;4920045;28;101999;-83
2021/08/11 04:00:31;;;;;;;;;5.00;4.00;;;;;23.70;49.13;98584.69;4928404;28;109535;-83
2021/08/11 04:02:59;;;;;;;;;4.33;4.00;;;;;23.73;49.30;98589.63;4921819;28;102330;-83
2021/08/11 04:05:26;;;;;;;;;3.33;3.33;;;;;23.73;49.28;98595.16;4922096;28;103781;-80
2021/08/11 04:07:53;;;;;;;;;5.00;4.00;;;;;23.71;48.93;98593.78;4946730;28;102073;-83
2021/08/11 04:10:21;;;;;;;;;4.33;4.00;;;;;23.71;49.21;98591.03;4933591;28;102093;-83
2021/08/11 04:12:48;;;;;;;;;5.00;4.00;;;;;23.70;49.07;98586.63;4914336;28;102056;-83
2021/08/11 04:15:15;;;;;;;;;3.33;2.67;;;;;23.70;48.96;98589.38;4916297;28;103765;-83
2021/08/11 04:17:43;;;;;;;;;5.00;5.00;;;;;23.69;49.36;98585.78;4918077;28;102326;-83
2021/08/11 04:20:10;;;;;;;;;5.00;5.00;;;;;23.67;49.14;98587.19;4913255;28;103189;-83
2021/08/11 04:22:38;;;;;;;;;4.00;3.33;;;;;23.65;49.01;98579.19;4922034;28;102082;-83
2021/08/11 04:25:06;;;;;;;;;5.00;5.00;;;;;23.66;49.29;98577.25;4907498;28;105698;-83
2021/08/11 04:27:33;;;;;;;;;4.00;4.00;;;;;23.53;48.74;98564.94;4912271;28;102904;-82
2021/08/11 04:30:00;;;;;;;;;5.00;5.00;;;;;23.63;48.97;98588.88;4915470;28;102085;-82
2021/08/11 04:32:27;;;;;;;;;7.00;4.33;;;;;23.62;49.01;98596.34;4913515;28;103845;-81
2021/08/11 04:34:55;;;;;;;;;4.00;4.00;;;;;23.62;48.84;98590.81;4919830;28;103405;-83
2021/08/11 04:37:22;;;;;;;;;5.00;5.00;;;;;23.60;48.98;98581.97;4915635;28;101805;-82
2021/08/11 04:39:49;;;;;;;;;5.67;4.33;;;;;23.59;48.92;98585.88;4909930;28;101927;-83
2021/08/11 04:42:18;;;;;;;;;6.00;6.00;;;;;23.58;48.79;98598.03;4914905;28;101903;-82
2021/08/11 04:44:45;;;;;;;;;7.67;6.67;;;;;23.57;48.87;98582.56;4914621;28;104588;-83
2021/08/11 04:47:12;;;;;;;;;5.33;5.00;;;;;23.58;48.96;98589.75;4913163;28;101862;-82
2021/08/11 04:49:40;;;;;;;;;4.67;4.67;;;;;23.58;48.84;98588.91;4905328;28;102496;-82
2021/08/11 04:52:07;;;;;;;;;7.00;5.33;;;;;23.58;48.78;98594.44;4919958;28;102987;-82
2021/08/11 04:54:34;;;;;;;;;6.67;5.67;;;;;23.56;48.69;98600.22;4921056;28;103457;-82
2021/08/11 04:57:01;;;;;;;;;7.33;6.00;;;;;23.54;48.49;98594.19;4920104;28;101742;-82
2021/08/11 04:59:28;;;;;;;;;6.00;5.00;;;;;23.55;48.47;98607.69;4915803;28;101673;-82
2021/08/11 05:01:55;;;;;;;;;6.00;5.33;;;;;23.54;48.53;98608.81;4937596;28;102214;-78
2021/08/11 05:04:23;;;;;;;;;7.33;6.00;;;;;23.54;48.50;98606.06;4914260;28;108380;-79
2021/08/11 05:06:50;;;;;;;;;5.33;5.00;;;;;23.54;48.42;98605.22;4904513;28;102041;-79
2021/08/11 05:09:20;;;;;;;;;7.00;7.00;;;;;23.53;48.27;98598.06;4918780;28;101815;-79
2021/08/11 05:11:47;;;;;;;;;6.67;4.67;;;;;23.54;48.49;98606.06;4910901;28;110588;-79
2021/08/11 05:14:14;;;;;;;;;7.00;6.00;;;;;23.54;48.37;98599.72;4922285;28;103738;-78
2021/08/11 05:16:42;;;;;;;;;4.67;4.33;;;;;23.53;48.43;98592.53;4916452;28;101734;-79
2021/08/11 05:19:09;;;;;;;;;6.00;6.00;;;;;23.52;48.21;98601.91;4926254;28;102272;-79
2021/08/11 05:21:37;;;;;;;;;4.67;4.33;;;;;23.53;48.46;98600.81;4941054;28;102673;-79
2021/08/11 05:24:04;;;;;;;;;6.00;5.00;;;;;23.50;48.25;98604.16;4920417;28;103396;-79
2021/08/11 05:26:32;;;;;;;;;6.33;5.00;;;;;23.41;48.29;98595.63;4920872;28;101779;-78
2021/08/11 05:28:59;;;;;;;;;5.67;5.67;;;;;23.49;48.34;98608.00;4943291;28;101770;-78
2021/08/11 05:31:29;;;;;;;;;5.00;5.00;;;;;23.48;48.22;98609.13;4926102;28;102116;-78
2021/08/11 05:33:56;;;;;;;;;6.00;5.33;;;;;23.48;48.24;98607.19;4929772;28;108159;-78
2021/08/11 05:36:25;;;;;;;;;5.00;4.67;;;;;23.48;48.37;98603.59;4940335;28;101719;-79
2021/08/11 05:38:52;;;;;;;;;5.00;5.00;;;;;23.46;48.38;98603.88;4920787;28;102261;-78
2021/08/11 05:41:20;;;;;;;;;6.00;5.00;;;;;23.48;48.35;98611.88;4934821;28;102554;-78
2021/08/11 05:43:47;;;;;;;;;5.33;4.00;;;;;23.48;48.35;98620.16;4926517;28;103393;-78
2021/08/11 05:46:14;;;;;;;;;4.67;4.00;;;;;23.45;48.51;98618.81;4925568;28;101903;-78
2021/08/11 05:48:42;;;;;;;;;5.33;5.33;;;;;23.43;48.63;98611.88;4936369;28;102196;-78
2021/08/11 05:51:09;;;;;;;;;5.00;4.00;;;;;23.45;48.49;98617.97;4939698;28;102290;-79
2021/08/11 05:53:36;;;;;;;;;4.00;4.00;;;;;23.44;48.68;98627.34;4919303;28;103562;-78
2021/08/11 05:56:04;;;;;;;;;5.00;4.00;;;;;23.44;48.56;98627.34;4931979;28;101631;-78
2021/08/11 05:58:32;;;;;;;;;5.00;5.00;;;;;23.43;48.63;98629.25;4919021;28;101846;-78
2021/08/11 06:00:59;;;;;;;;;6.00;5.00;;;;;23.43;48.80;98631.19;4925233;28;103422;-78
2021/08/11 06:03:27;;;;;;;;;6.67;6.00;;;;;23.44;48.82;98630.13;4948846;28;103673;-79
2021/08/11 06:05:54;;;;;;;;;5.33;5.00;;;;;23.42;48.92;98630.34;4918651;28;101765;-79
2021/08/11 06:08:21;;;;;;;;;5.33;5.00;;;;;23.43;48.79;98633.94;4923330;28;101993;-78
2021/08/11 06:10:48;;;;;;;;;4.00;4.00;;;;;23.43;49.03;98636.72;4927793;28;101764;-78
2021/08/11 06:13:16;;;;;;;;;3.00;3.00;;;;;23.41;49.21;98633.44;4927093;28;103531;-78
2021/08/11 06:15:43;;;;;;;;;5.67;4.67;;;;;23.41;49.17;98639.78;4931844;28;101905;-78
2021/08/11 06:18:10;;;;;;;;;4.00;4.00;;;;;23.42;49.26;98637.81;4923326;28;102092;-78
2021/08/11 06:20:39;;;;;;;;;3.33;3.33;;;;;23.42;49.17;98624.00;4913686;28;103240;-78
2021/08/11 06:23:06;;;;;;;;;4.00;4.00;;;;;23.42;49.09;98624.00;4916112;28;103396;-78
2021/08/11 06:25:33;;;;;;;;;5.33;4.67;;;;;23.41;49.42;98631.50;4917390;28;101964;-79
2021/08/11 06:28:00;;;;;;;;;3.33;3.33;;;;;23.42;49.26;98635.06;4908332;28;101924;-78
2021/08/11 06:30:28;;;;;;;;;4.33;3.67;;;;;23.42;49.45;98629.53;4918089;28;102836;-78
2021/08/11 06:32:55;;;;;;;;;6.00;4.67;;;;;23.43;49.49;98636.72;4926128;28;108315;-79
2021/08/11 06:35:23;;;;;;;;;6.00;3.67;;;;;23.43;49.65;98629.25;4904408;28;102275;-78
2021/08/11 06:37:50;;;;;;;;;5.00;5.00;;;;;23.43;49.52;98637.53;4913770;28;102245;-78
2021/08/11 06:40:18;;;;;;;;;4.33;4.00;;;;;23.43;49.60;98636.72;4919275;28;102167;-78
2021/08/11 06:42:45;;;;;;;;;5.00;4.33;;;;;23.42;49.54;98640.56;4893850;28;103657;-78
2021/08/11 06:45:13;;;;;;;;;3.33;3.00;;;;;23.44;49.69;98644.75;4904401;28;102219;-78
2021/08/11 06:47:40;;;;;;;;;3.67;3.67;;;;;23.45;49.76;98640.06;4909602;28;101642;-78
2021/08/11 06:50:08;;;;;;;;;2.67;2.67;;;;;23.44;49.76;98638.41;4899912;28;101813;-78
2021/08/11 06:52:36;;;;;;;;;5.00;3.00;;;;;23.45;49.74;98642.81;4921037;28;103440;-79
2021/08/11 06:55:07;;;;;;;;;4.67;4.00;;;;;23.46;49.74;98638.94;4916594;28;102274;-79
2021/08/11 06:57:34;;;;;;;;;5.33;4.33;;;;;23.46;49.63;98644.47;4882809;28;110759;-79
2021/08/11 07:00:01;;;;;;;;;4.00;4.00;;;;;23.45;49.72;98634.53;4919448;28;101787;-79
2021/08/11 07:02:29;;;;;;;;;4.00;4.00;;;;;23.47;49.78;98641.41;4910170;28;103528;-79
2021/08/11 07:04:56;;;;;;;;;5.00;5.00;;;;;23.46;49.88;98641.72;4901279;28;101979;-78
2021/08/11 07:07:23;;;;;;;;;4.00;4.00;;;;;23.46;50.03;98650.78;4914134;28;101995;-78
2021/08/11 07:09:51;;;;;;;;;4.00;4.00;;;;;23.48;49.84;98642.25;4914233;28;102242;-78
2021/08/11 07:12:18;;;;;;;;;3.00;3.00;;;;;23.49;49.98;98646.66;4911927;28;103480;-78
2021/08/11 07:14:47;;;;;;;;;4.00;4.00;;;;;23.49;49.95;98646.66;4908257;28;102132;-78
2021/08/11 07:17:14;;;;;;;;;2.67;2.67;;;;;23.50;49.95;98651.91;4902304;28;101780;-78
2021/08/11 07:19:42;;;;;;;;;4.00;4.00;;;;;23.52;49.99;98648.84;4912043;28;103200;-78
2021/08/11 07:22:10;;;;;;;;;3.00;3.00;;;;;23.52;49.87;98652.44;4908349;28;103461;-78
2021/08/11 07:24:37;;;;;;;;;4.67;4.00;;;;;23.53;50.01;98653.25;4912618;28;101897;-78
2021/08/11 07:27:05;;;;;;;;;3.33;3.33;;;;;23.54;49.98;98654.91;4896075;28;102130;-78
2021/08/11 07:29:32;;;;;;;;;6.00;5.00;;;;;23.54;50.18;98649.41;4919451;28;102173;-78
2021/08/11 07:31:59;;;;;;;;;4.67;4.00;;;;;23.56;49.89;98658.19;4912403;28;103570;-78
2021/08/11 07:34:26;;;;;;;;;4.00;3.67;;;;;23.56;50.26;98655.44;4917298;28;102270;-79
2021/08/11 07:36:53;;;;;;;;;4.00;4.00;;;;;23.56;50.15;98658.19;4910766;28;102229;-79
2021/08/11 07:39:21;;;;;;;;;3.00;3.00;;;;;23.55;50.07;98657.38;4901535;28;102370;-78
2021/08/11 07:41:48;;;;;;;;;4.00;4.00;;;;;23.58;50.07;98650.47;4912435;28;103401;-78
2021/08/11 07:44:15;;;;;;;;;3.33;3.33;;;;;23.58;49.95;98661.50;4911091;28;101859;-79
2021/08/11 07:46:42;;;;;;;;;4.00;4.00;;;;;23.60;50.08;98664.81;4899762;28;101904;-78
2021/08/11 07:49:12;;;;;;;;;3.33;3.33;;;;;23.58;49.87;98664.28;4913156;28;102022;-78
2021/08/11 07:51:39;;;;;;;;;3.00;3.00;;;;;23.61;49.98;98669.22;4906781;28;103566;-78
2021/08/11 07:54:06;;;;;;;;;5.00;4.67;;;;;23.62;50.25;98665.34;4909273;28;101810;-78
2021/08/11 07:56:34;;;;;;;;;2.33;2.33;;;;;23.64;50.12;98670.59;4909211;28;102530;-79
2021/08/11 07:59:01;;;;;;;;;4.00;4.00;;;;;23.63;50.20;98666.19;4915330;28;101799;-79
2021/08/11 08:01:28;;;;;;;;;4.00;4.00;;;;;23.64;50.04;98665.09;4911731;28;103491;-78
2021/08/11 08:03:55;;;;;;;;;4.00;4.00;;;;;23.64;50.09;98663.13;4914996;28;102120;-78
2021/08/11 08:06:22;;;;;;;;;3.00;3.00;;;;;23.64;50.17;98676.94;4910344;28;101718;-78
2021/08/11 08:08:50;;;;;;;;;4.00;4.00;;;;;23.66;50.08;98669.19;4905120;28;102128;-78
2021/08/11 08:11:17;;;;;;;;;5.00;3.67;;;;;23.66;50.20;98669.19;4910196;28;103360;-78
2021/08/11 08:13:45;;;;;;;;;4.00;4.00;;;;;23.67;50.04;98670.84;4903387;28;102990;-78
2021/08/11 08:16:15;;;;;;;;;4.00;4.00;;;;;23.67;50.31;98668.09;4916628;28;101752;-78
2021/08/11 08:18:42;;;;;;;;;3.33;3.33;;;;;23.68;50.19;98664.22;4925430;28;102055;-78
2021/08/11 08:21:10;;;;;;;;;3.00;3.00;;;;;23.69;50.16;98663.09;4900585;28;103397;-78
2021/08/11 08:23:38;;;;;;;;;3.00;3.00;;;;;23.68;50.32;98661.47;4911264;28;101691;-78
2021/08/11 08:26:05;;;;;;;;;2.00;2.00;;;;;23.70;50.20;98664.75;4921912;28;103778;-79
2021/08/11 08:28:32;;;;;;;;;5.00;4.67;;;;;23.71;50.51;98660.88;4915660;28;102218;-79
2021/08/11 08:30:59;;;;;;;;;3.33;3.33;;;;;23.73;50.48;98666.94;4899935;28;103783;-78
2021/08/11 08:33:26;;;;;;;;;3.00;3.00;;;;;23.73;50.27;98669.69;4921345;28;102095;-79
2021/08/11 08:35:54;;;;;;;;;4.00;3.00;;;;;23.73;50.44;98672.47;4910824;28;102474;-79
2021/08/11 08:38:21;;;;;;;;;3.00;2.00;;;;;23.75;50.38;98672.19;4907055;28;103767;-79
2021/08/11 08:41:08;;;;;;;;;3.67;2.67;;;;;23.75;50.41;98664.72;4861721;28;108264;-77
2021/08/11 08:43:35;;;;;;;;;3.67;2.33;;;;;23.76;50.42;98669.16;4891691;28;103138;-79
2021/08/11 08:46:02;;;;;;;;;2.33;2.33;;;;;23.77;50.20;98670.81;4899245;28;102903;-78
2021/08/11 08:48:29;;;;;;;;;4.00;4.00;;;;;23.77;50.44;98668.03;4908991;28;102427;-78
2021/08/11 08:50:56;;;;;;;;;3.00;3.00;;;;;23.79;50.44;98663.03;4880923;28;109509;-78
2021/08/11 08:53:24;;;;;;;;;3.33;3.00;;;;;23.79;50.54;98668.56;4916244;28;102180;-78
2021/08/11 08:55:52;;;;;;;;;3.33;3.33;;;;;23.79;50.37;98654.75;4907308;28;102062;-78
2021/08/11 08:58:19;;;;;;;;;4.00;4.00;;;;;23.81;50.52;98657.25;4902962;28;101725;-79
2021/08/11 09:00:47;;;;;;;;;3.67;3.00;;;;;23.81;50.36;98652.56;4896154;28;103402;-78
2021/08/11 09:03:15;;;;;;;;;4.67;4.00;;;;;23.75;50.39;98641.81;4908870;28;102597;-79
2021/08/11 09:05:42;;;;;;;;;2.00;2.00;;;;;23.83;50.34;98649.50;4893069;28;102267;-79
2021/08/11 09:08:10;;;;;;;;;2.33;2.33;;;;;23.82;50.44;98654.19;4916323;28;102339;-79
2021/08/11 09:10:41;;;;;;;;;5.00;4.00;;;;;23.84;50.43;98649.22;4910950;28;103280;-79
2021/08/11 09:13:19;;;;;;;;;1.33;1.33;;;;;23.84;50.39;98654.72;4904722;28;101738;-79
2021/08/11 09:15:53;;;;;;;;;3.00;3.00;;;;;23.86;50.44;98662.75;4921100;28;102274;-79
2021/08/11 09:18:26;;;;;;;;;4.00;3.00;;;;;23.87;50.45;98643.09;4914392;28;102003;-79
2021/08/11 09:21:13;;;;;;;;;3.33;3.33;;;;;23.87;50.40;98653.31;4898186;28;103610;-79
2021/08/11 09:23:44;;;;;;;;;4.67;3.00;;;;;23.88;50.47;98649.47;4854486;28;101905;-78
2021/08/11 09:26:15;;;;;;;;;2.00;2.00;;;;;23.88;50.64;98650.28;4916902;28;102304;-79
2021/08/11 09:28:44;;;;;;;;;3.33;3.00;;;;;23.89;50.47;98649.19;4915805;28;103524;-78
2021/08/11 09:31:21;;;;;;;;;3.67;3.33;;;;;23.89;50.47;98657.47;4904858;28;103363;-78
2021/08/11 09:33:50;;;;;;;;;3.67;3.67;;;;;23.90;50.76;98664.66;4914553;28;101998;-78
2021/08/11 09:36:17;;;;;;;;;2.67;2.67;;;;;23.89;50.35;98654.72;4904610;28;102267;-79
2021/08/11 09:39:03;;;;;;;;;2.33;2.33;;;;;23.92;50.61;98662.41;4904601;28;103131;-79
2021/08/11 09:41:33;;;;;;;;;4.00;3.00;;;;;23.94;50.33;98660.19;4904232;28;108244;-79
2021/08/11 09:44:10;;;;;;;;;2.67;2.33;;;;;23.94;50.53;98662.13;4912115;28;101855;-79
2021/08/11 09:46:41;;;;;;;;;4.67;4.00;;;;;23.95;50.80;98670.16;4832240;28;107590;-79
2021/08/11 09:49:26;;;;;;;;;2.33;1.67;;;;;23.97;50.70;98667.06;4914416;28;101634;-78
2021/08/11 09:51:57;;;;;;;;;3.67;3.67;;;;;23.96;50.65;98662.66;4907835;28;103253;-78
2021/08/11 09:54:24;;;;;;;;;2.00;2.00;;;;;23.96;50.43;98657.13;4903710;28;102267;-78
2021/08/11 09:56:52;;;;;;;;;2.67;2.67;;;;;23.98;50.72;98660.44;4897233;28;101867;-78
2021/08/11 09:59:19;;;;;;;;;3.67;3.00;;;;;23.99;50.85;98665.69;4914384;28;101739;-78
2021/08/11 10:01:47;;;;;;;;;2.33;2.33;;;;;24.00;50.65;98663.75;4899239;28;103429;-78
2021/08/11 10:04:21;;;;;;;;;3.33;3.33;;;;;24.01;50.67;98663.47;4917659;28;101818;-79
2021/08/11 10:06:51;;;;;;;;;2.00;2.00;;;;;24.01;50.75;98666.22;4916480;28;101851;-79
2021/08/11 10:09:25;;;;;;;;;3.00;2.67;;;;;24.02;50.73;98665.13;4913792;28;102295;-79
2021/08/11 10:11:53;;;;;;;;;3.00;3.00;;;;;24.04;50.54;98675.88;4907633;28;103907;-79
2021/08/11 10:14:24;;;;;;;;;3.00;2.00;;;;;24.05;50.68;98677.50;4916132;28;101929;-79
2021/08/11 10:16:52;;;;;;;;;3.00;3.00;;;;;24.06;50.80;98673.66;4910238;28;101945;-79
2021/08/11 10:19:21;;;;;;;;;3.00;3.00;;;;;24.07;50.43;98668.94;4940009;28;101832;-79
2021/08/11 10:22:02;;;;;;;;;1.00;1.00;;;;;24.08;50.63;98671.44;4920432;28;103443;-78
2021/08/11 10:24:30;;;;;;;;;3.00;3.00;;;;;24.08;50.75;98676.13;4922768;28;102093;-79
2021/08/11 10:26:58;;;;;;;;;3.33;3.00;;;;;24.09;50.72;98675.03;4916246;28;109736;-79
2021/08/11 10:29:25;;;;;;;;;2.00;1.33;;;;;24.09;50.76;98667.53;4938495;28;103054;-78
2021/08/11 10:31:54;;;;;;;;;2.00;2.00;;;;;24.10;50.52;98657.31;4916768;28;103416;-79
2021/08/11 10:34:22;;;;;;;;;2.00;2.00;;;;;24.11;50.68;98661.72;4930824;28;102313;-78
2021/08/11 10:36:50;;;;;;;;;4.00;3.00;;;;;24.12;50.57;98677.22;4916673;28;103706;-78
2021/08/11 10:39:18;;;;;;;;;3.00;3.00;;;;;24.13;50.69;98667.81;4927928;28;101820;-78
2021/08/11 10:41:45;;;;;;;;;1.67;1.67;;;;;24.14;50.85;98658.38;4930628;28;103430;-79
2021/08/11 10:44:20;;;;;;;;;5.33;4.33;;;;;24.14;50.43;98669.44;4923270;28;101818;-79
2021/08/11 10:47:08;;;;;;;;;3.00;3.00;;;;;24.15;50.59;98671.94;4905680;28;101969;-78
2021/08/11 10:49:54;;;;;;;;;3.00;3.00;;;;;24.15;50.75;98669.16;4917781;28;102246;-78
2021/08/11 10:52:21;;;;;;;;;2.33;2.33;;;;;24.17;50.83;98674.44;4888226;28;103939;-78
2021/08/11 10:54:53;;;;;;;;;2.67;2.00;;;;;24.18;50.61;98659.53;4917525;28;102756;-79
2021/08/11 10:57:39;;;;;;;;;4.00;3.00;;;;;24.18;50.53;98667.81;4927591;28;102110;-79
2021/08/11 11:00:09;;;;;;;;;3.33;3.00;;;;;24.19;50.81;98677.72;4928850;28;102187;-79
2021/08/11 11:02:36;;;;;;;;;3.67;2.67;;;;;24.19;50.77;98669.44;4928256;28;103424;-79
2021/08/11 11:05:05;;;;;;;;;2.00;2.00;;;;;24.21;50.80;98664.47;4913302;28;102332;-79
2021/08/11 11:07:33;;;;;;;;;3.00;3.00;;;;;24.19;50.70;98663.91;4924439;28;102800;-79
2021/08/11 11:10:23;;;;;;;;;3.33;2.00;;;;;24.21;50.72;98657.00;4934403;28;101754;-79
2021/08/11 11:12:50;;;;;;;;;1.00;1.00;;;;;24.20;50.61;98663.63;4864081;28;108652;-78
2021/08/11 11:15:40;;;;;;;;;2.00;2.00;;;;;24.23;50.45;98660.28;4935430;28;101823;-79
2021/08/11 11:18:11;;;;;;;;;3.00;3.00;;;;;24.25;50.67;98663.59;4866527;28;102150;-79
2021/08/11 11:20:39;;;;;;;;;2.00;2.00;;;;;24.24;50.58;98658.34;4913318;28;101866;-79
2021/08/11 11:23:07;;;;;;;;;3.33;3.33;;;;;24.27;50.61;98657.78;4908039;28;103545;-79
2021/08/11 11:25:58;;;;;;;;;3.67;3.00;;;;;24.28;50.60;98660.25;4906613;28;102709;-79
2021/08/11 11:28:51;;;;;;;;;2.33;2.33;;;;;24.30;50.81;98654.44;4885889;28;101776;-79
2021/08/11 11:31:38;;;;;;;;;2.00;2.00;;;;;24.31;50.55;98654.16;4861657;28;102441;-79
2021/08/11 11:34:25;;;;;;;;;2.33;2.00;;;;;24.33;50.77;98656.63;4907309;28;108128;-79
2021/08/11 11:36:55;;;;;;;;;2.00;2.00;;;;;24.35;50.50;98659.94;4897809;28;102115;-79
2021/08/11 11:39:40;;;;;;;;;2.00;1.00;;;;;24.36;50.37;98658.81;4913109;28;102201;-79